createdAt,value
2019-04-03T00:01:19.654Z,9.70
2019-04-03T00:03:48.568Z,9.23
2019-04-03T00:06:19.212Z,9.67
2019-04-03T00:08:50.136Z,8.43
2019-04-03T00:11:19.051Z,7.83
2019-04-03T00:13:48.024Z,7.97
2019-04-03T00:16:17.029Z,7.60
2019-04-03T00:18:47.583Z,7.00
2019-04-03T00:21:17.690Z,7.40
2019-04-03T00:23:47.327Z,6.83
2019-04-03T00:26:16.207Z,6.47
2019-04-03T00:28:47.310Z,6.30
2019-04-03T00:31:16.171Z,6.30
2019-04-03T00:33:45.046Z,6.47
2019-04-03T00:36:18.886Z,5.93
2019-04-03T00:38:47.784Z,5.80
2019-04-03T00:41:16.926Z,4.90
2019-04-03T00:43:45.891Z,4.60
2019-04-03T00:46:15.616Z,4.60
2019-04-03T00:48:44.607Z,4.50
2019-04-03T00:51:13.667Z,4.70
2019-04-03T00:53:42.768Z,4.87
2019-04-03T00:56:11.941Z,5.40
2019-04-03T00:58:42.211Z,5.10
2019-04-03T01:01:11.430Z,5.57
2019-04-03T01:03:40.509Z,5.40
2019-04-03T01:06:09.356Z,5.33
2019-04-03T01:08:38.503Z,5.70
2019-04-03T01:11:07.446Z,5.90
2019-04-03T01:13:36.333Z,5.63
2019-04-03T01:16:05.572Z,6.00
2019-04-03T01:18:35.366Z,6.00
2019-04-03T01:21:07.714Z,6.07
2019-04-03T01:23:38.925Z,5.90
2019-04-03T01:26:10.087Z,6.60
2019-04-03T01:28:42.899Z,6.07
2019-04-03T01:31:14.224Z,6.43
2019-04-03T01:33:42.618Z,6.20
2019-04-03T01:36:11.686Z,6.53
2019-04-03T01:38:40.916Z,6.93
2019-04-03T01:41:09.902Z,6.70
2019-04-03T01:43:42.389Z,7.30
2019-04-03T01:46:12.569Z,7.07
2019-04-03T01:48:41.480Z,7.57
2019-04-03T01:51:10.715Z,9.50
2019-04-03T01:53:40.261Z,9.87
2019-04-03T01:56:12.267Z,11.47
2019-04-03T01:58:41.285Z,12.67
2019-04-03T02:01:10.457Z,12.93
2019-04-03T02:03:41.727Z,14.70
2019-04-03T02:06:13.513Z,16.03
2019-04-03T02:08:44.899Z,13.90
2019-04-03T02:11:14.406Z,12.50
2019-04-03T02:13:43.198Z,13.10
2019-04-03T02:16:12.128Z,13.40
2019-04-03T02:18:41.051Z,14.50
2019-04-03T02:21:10.197Z,16.63
2019-04-03T02:23:39.226Z,17.47
2019-04-03T02:26:08.165Z,18.90
2019-04-03T02:28:37.170Z,19.73
2019-04-03T02:31:06.240Z,21.00
2019-04-03T02:33:36.139Z,20.60
2019-04-03T02:36:05.006Z,21.33
2019-04-03T02:38:34.235Z,20.83
2019-04-03T02:41:07.742Z,21.20
2019-04-03T02:43:39.128Z,21.10
2019-04-03T02:46:08.166Z,21.97
2019-04-03T02:48:38.288Z,20.13
2019-04-03T02:51:07.669Z,22.53
2019-04-03T02:53:38.769Z,21.97
2019-04-03T02:56:07.493Z,22.37
2019-04-03T02:58:38.036Z,21.67
2019-04-03T03:01:07.355Z,20.37
2019-04-03T03:03:39.489Z,20.47
2019-04-03T03:06:08.356Z,20.43
2019-04-03T03:08:40.518Z,20.73
2019-04-03T03:11:08.730Z,20.07
2019-04-03T03:13:44.321Z,20.30
2019-04-03T03:16:14.539Z,19.23
2019-04-03T03:18:43.948Z,18.63
2019-04-03T03:21:14.791Z,19.33
2019-04-03T03:23:43.934Z,18.27
2019-04-03T03:26:17.589Z,19.10
2019-04-03T03:28:47.926Z,18.70
2019-04-03T03:31:44.420Z,18.60
2019-04-03T03:34:00.504Z,18.40
2019-04-03T03:36:26.455Z,17.73
2019-04-03T03:38:58.370Z,16.03
2019-04-03T03:41:33.904Z,16.60
2019-04-03T03:44:02.999Z,16.63
2019-04-03T03:46:34.025Z,15.70
2019-04-03T03:49:02.916Z,16.70
2019-04-03T03:51:37.863Z,16.73
2019-04-03T03:54:06.839Z,15.47
2019-04-03T03:56:40.738Z,14.80
2019-04-03T03:59:16.326Z,16.20
2019-04-03T04:01:43.395Z,17.50
2019-04-03T04:04:14.179Z,18.77
2019-04-03T04:06:45.065Z,17.40
2019-04-03T04:09:20.168Z,17.53
2019-04-03T04:11:52.806Z,16.63
2019-04-03T04:14:25.009Z,15.63
2019-04-03T04:16:53.941Z,15.07
2019-04-03T04:19:23.014Z,14.67
2019-04-03T04:21:52.066Z,14.00
2019-04-03T04:24:24.036Z,14.27
2019-04-03T04:26:52.968Z,14.70
2019-04-03T04:29:22.138Z,14.10
2019-04-03T04:31:51.355Z,15.00
2019-04-03T04:34:20.382Z,16.13
2019-04-03T04:36:54.774Z,16.20
2019-04-03T04:39:23.048Z,16.43
2019-04-03T04:41:53.835Z,17.53
2019-04-03T04:44:24.783Z,18.53
2019-04-03T04:46:56.087Z,17.77
2019-04-03T04:49:25.051Z,19.03
2019-04-03T04:51:56.602Z,19.00
2019-04-03T04:54:24.940Z,21.10
2019-04-03T04:56:53.994Z,20.23
2019-04-03T04:59:23.112Z,21.00
2019-04-03T05:01:52.046Z,21.57
2019-04-03T05:04:25.227Z,20.70
2019-04-03T05:06:56.083Z,21.30
2019-04-03T05:09:25.000Z,20.50
2019-04-03T05:11:56.185Z,21.53
2019-04-03T05:14:25.824Z,20.80
2019-04-03T05:16:56.355Z,21.70
2019-04-03T05:19:25.447Z,20.50
2019-04-03T05:21:55.800Z,20.33
2019-04-03T05:24:24.758Z,20.03
2019-04-03T05:26:53.814Z,20.20
2019-04-03T05:29:23.124Z,18.43
2019-04-03T05:31:52.404Z,17.97
2019-04-03T05:34:21.412Z,18.83
2019-04-03T05:36:52.733Z,17.50
2019-04-03T05:39:23.921Z,18.77
2019-04-03T05:41:53.623Z,17.57
2019-04-03T05:44:25.922Z,18.80
2019-04-03T05:46:55.011Z,18.30
2019-04-03T05:49:25.870Z,20.30
2019-04-03T05:51:54.928Z,17.63
2019-04-03T05:54:23.934Z,17.87
2019-04-03T05:57:14.088Z,17.67
2019-04-03T05:59:44.747Z,16.93
2019-04-03T06:02:16.937Z,16.23
2019-04-03T06:04:44.757Z,16.97
2019-04-03T06:07:17.527Z,16.13
2019-04-03T06:09:44.925Z,19.40
2019-04-03T06:12:19.398Z,16.30
2019-04-03T06:14:50.504Z,15.87
2019-04-03T06:17:22.781Z,16.00
2019-04-03T06:19:54.963Z,16.60
2019-04-03T06:22:24.039Z,15.70
2019-04-03T06:24:57.105Z,15.47
2019-04-03T06:27:27.724Z,16.30
2019-04-03T06:29:57.480Z,15.67
2019-04-03T06:32:29.938Z,14.20
2019-04-03T06:34:59.380Z,14.67
2019-04-03T06:37:31.241Z,14.80
2019-04-03T06:40:02.966Z,15.13
2019-04-03T06:42:36.119Z,14.67
2019-04-03T06:45:15.423Z,15.20
2019-04-03T06:47:46.790Z,14.07
2019-04-03T06:50:17.572Z,14.00
2019-04-03T06:52:46.975Z,14.83
2019-04-03T06:55:20.534Z,14.63
2019-04-03T06:57:52.633Z,15.20
2019-04-03T07:00:34.921Z,14.40
2019-04-03T07:03:04.590Z,14.53
2019-04-03T07:05:33.756Z,13.50
2019-04-03T07:08:04.299Z,14.00
2019-04-03T07:10:34.519Z,14.40
2019-04-03T07:13:04.547Z,12.93
2019-04-03T07:15:34.830Z,14.03
2019-04-03T07:18:08.355Z,13.13
2019-04-03T07:20:44.073Z,14.07
2019-04-03T07:23:14.933Z,13.33
2019-04-03T07:25:44.221Z,12.57
2019-04-03T07:28:13.439Z,13.17
2019-04-03T07:30:44.846Z,13.03
2019-04-03T07:33:17.178Z,13.40
2019-04-03T07:35:47.717Z,13.70
2019-04-03T07:38:16.984Z,14.07
2019-04-03T07:40:45.785Z,14.70
2019-04-03T07:43:14.771Z,14.60
2019-04-03T07:45:48.954Z,13.83
2019-04-03T07:48:17.575Z,14.23
2019-04-03T07:50:46.228Z,14.20
2019-04-03T07:53:14.876Z,14.47
2019-04-03T07:55:44.322Z,14.50
2019-04-03T07:58:13.105Z,13.50
2019-04-03T08:00:42.090Z,13.40
2019-04-03T08:03:11.140Z,13.53
2019-04-03T08:05:39.868Z,14.33
2019-04-03T08:08:08.553Z,21.53
2019-04-03T08:10:37.808Z,21.50
2019-04-03T08:13:07.520Z,23.20
2019-04-03T08:15:36.458Z,22.10
2019-04-03T08:18:05.171Z,25.67
2019-04-03T08:20:33.979Z,23.83
2019-04-03T08:23:04.623Z,25.07
2019-04-03T08:25:33.260Z,26.20
2019-04-03T08:28:02.059Z,25.17
2019-04-03T08:30:30.746Z,26.83
2019-04-03T08:32:59.480Z,26.30
2019-04-03T08:35:28.072Z,25.07
2019-04-03T08:37:56.973Z,23.57
2019-04-03T08:40:25.612Z,20.87
2019-04-03T08:42:54.541Z,22.20
2019-04-03T08:45:23.176Z,20.90
2019-04-03T08:47:52.312Z,21.03
2019-04-03T08:50:21.323Z,24.07
2019-04-03T08:52:50.047Z,24.90
2019-04-03T08:55:18.799Z,25.53
2019-04-03T08:57:47.495Z,26.03
2019-04-03T09:00:16.757Z,24.67
2019-04-03T09:02:46.898Z,22.63
2019-04-03T09:05:18.994Z,21.30
2019-04-03T09:07:46.311Z,19.93
2019-04-03T09:10:15.096Z,21.30
2019-04-03T09:12:43.867Z,18.43
2019-04-03T09:15:12.619Z,20.00
2019-04-03T09:17:44.281Z,21.87
2019-04-03T09:20:13.821Z,22.23
2019-04-03T09:22:42.901Z,20.90
2019-04-03T09:25:13.757Z,20.20
2019-04-03T09:27:42.724Z,19.97
2019-04-03T09:30:11.823Z,18.00
2019-04-03T09:32:40.586Z,16.47
2019-04-03T09:35:09.398Z,16.70
2019-04-03T09:37:38.409Z,15.80
2019-04-03T09:40:07.411Z,16.00
2019-04-03T09:42:36.068Z,16.20
2019-04-03T09:45:05.351Z,15.33
2019-04-03T09:47:34.960Z,16.00
2019-04-03T09:50:05.462Z,14.40
2019-04-03T09:52:41.774Z,15.33
2019-04-03T09:55:05.029Z,16.13
2019-04-03T09:57:34.231Z,14.60
2019-04-03T10:00:03.907Z,14.90
2019-04-03T10:02:32.771Z,13.80
2019-04-03T10:05:01.440Z,15.20
2019-04-03T10:07:31.850Z,13.73
2019-04-03T10:10:00.560Z,12.00
2019-04-03T10:12:31.778Z,12.70
2019-04-03T10:15:00.174Z,13.00
2019-04-03T10:17:29.017Z,14.70
2019-04-03T10:19:57.671Z,14.50
2019-04-03T10:22:26.401Z,15.13
2019-04-03T10:24:55.267Z,13.57
2019-04-03T10:27:23.951Z,12.40
2019-04-03T10:29:55.282Z,11.50
2019-04-03T10:32:23.121Z,12.70
2019-04-03T10:34:52.584Z,13.63
2019-04-03T10:37:21.576Z,12.47
2019-04-03T10:39:53.066Z,12.93
2019-04-03T10:42:20.892Z,12.80
2019-04-03T10:44:49.657Z,12.73
2019-04-03T10:47:20.840Z,12.73
2019-04-03T10:49:49.316Z,11.47
2019-04-03T10:52:18.306Z,9.30
2019-04-03T10:54:47.638Z,9.00
2019-04-03T10:57:16.396Z,8.93
2019-04-03T10:59:50.135Z,8.10
2019-04-03T11:02:17.008Z,8.67
2019-04-03T11:04:45.785Z,7.10
2019-04-03T11:07:14.640Z,6.93
2019-04-03T11:09:43.751Z,8.17
2019-04-03T11:12:12.626Z,5.87
2019-04-03T11:14:41.540Z,6.33
2019-04-03T11:17:10.393Z,6.83
2019-04-03T11:19:39.168Z,5.67
2019-04-03T11:22:07.870Z,6.70
2019-04-03T11:24:39.794Z,6.17
2019-04-03T11:27:07.181Z,5.97
2019-04-03T11:29:41.006Z,5.73
2019-04-03T11:32:10.018Z,6.80
2019-04-03T11:34:39.101Z,7.10
2019-04-03T11:37:08.370Z,7.20
2019-04-03T11:39:37.833Z,6.23
2019-04-03T11:42:06.784Z,6.47
2019-04-03T11:44:37.505Z,6.80
2019-04-03T11:47:06.193Z,6.63
2019-04-03T11:49:34.857Z,4.90
2019-04-03T11:52:03.945Z,4.47
2019-04-03T11:54:33.045Z,4.70
2019-04-03T11:57:02.139Z,4.73
2019-04-03T11:59:31.605Z,4.10
2019-04-03T12:02:00.836Z,3.50
2019-04-03T12:04:29.662Z,3.40
2019-04-03T12:06:58.634Z,3.20
2019-04-03T12:09:27.563Z,3.33
2019-04-03T12:11:56.692Z,3.00
2019-04-03T12:14:25.825Z,2.83
2019-04-03T12:16:56.976Z,2.87
2019-04-03T12:19:25.525Z,2.47
2019-04-03T12:21:56.761Z,2.80
2019-04-03T12:24:25.588Z,2.83
2019-04-03T12:26:55.769Z,3.07
2019-04-03T12:29:24.806Z,3.10
2019-04-03T12:31:53.747Z,3.07
2019-04-03T12:34:23.837Z,2.93
2019-04-03T12:36:52.716Z,2.77
2019-04-03T12:39:28.162Z,3.17
2019-04-03T12:41:59.909Z,3.13
2019-04-03T12:44:28.908Z,3.00
2019-04-03T12:46:57.965Z,3.20
2019-04-03T12:49:27.372Z,3.33
2019-04-03T12:51:57.952Z,3.20
2019-04-03T12:54:26.813Z,2.90
2019-04-03T12:57:00.234Z,3.00
2019-04-03T12:59:30.568Z,2.80
2019-04-03T13:01:59.576Z,3.40
2019-04-03T13:04:32.920Z,2.83
2019-04-03T13:07:04.455Z,3.10
2019-04-03T13:09:33.031Z,3.03
2019-04-03T13:12:01.980Z,3.20
2019-04-03T13:14:32.616Z,3.47
2019-04-03T13:17:01.564Z,3.27
2019-04-03T13:19:30.750Z,3.33
2019-04-03T13:21:59.649Z,3.30
2019-04-03T13:24:28.663Z,3.30
2019-04-03T13:26:58.064Z,3.40
2019-04-03T13:29:27.868Z,3.50
2019-04-03T13:31:57.140Z,3.70
2019-04-03T13:34:26.555Z,4.00
2019-04-03T13:36:56.966Z,3.80
2019-04-03T13:39:27.817Z,4.00
2019-04-03T13:41:57.206Z,4.00
2019-04-03T13:44:27.966Z,3.97
2019-04-03T13:46:57.661Z,4.17
2019-04-03T13:49:29.253Z,4.13
2019-04-03T13:52:03.947Z,4.40
2019-04-03T13:54:29.692Z,5.00
2019-04-03T13:56:58.880Z,5.30
2019-04-03T13:59:27.736Z,5.40
2019-04-03T14:01:56.599Z,5.43
2019-04-03T14:04:25.769Z,5.10
2019-04-03T14:06:55.443Z,5.73
2019-04-03T14:09:24.143Z,6.33
2019-04-03T14:11:54.153Z,7.17
2019-04-03T14:14:22.884Z,6.43
2019-04-03T14:16:51.751Z,6.90
2019-04-03T14:19:23.589Z,8.37
2019-04-03T14:21:51.224Z,9.60
2019-04-03T14:24:20.278Z,9.83
2019-04-03T14:26:49.165Z,10.13
2019-04-03T14:29:18.670Z,7.17
2019-04-03T14:31:49.350Z,5.00
2019-04-03T14:34:18.742Z,6.43
2019-04-03T14:36:47.945Z,8.00
2019-04-03T14:39:18.373Z,6.93
2019-04-03T14:41:47.462Z,8.20
2019-04-03T14:44:16.352Z,8.73
2019-04-03T14:46:45.198Z,7.97
2019-04-03T14:49:14.190Z,8.60
2019-04-03T14:51:44.101Z,8.70
2019-04-03T14:54:13.376Z,6.90
2019-04-03T14:56:42.403Z,7.07
2019-04-03T14:59:16.375Z,8.40
2019-04-03T15:01:47.571Z,7.30
2019-04-03T15:04:22.999Z,7.00
2019-04-03T15:07:04.583Z,7.50
2019-04-03T15:09:27.890Z,8.03
2019-04-03T15:12:01.555Z,7.93
2019-04-03T15:14:32.448Z,7.50
2019-04-03T15:17:04.042Z,7.67
2019-04-03T15:19:35.449Z,7.37
2019-04-03T15:22:06.516Z,7.70
2019-04-03T15:24:38.847Z,5.67
2019-04-03T15:27:12.240Z,5.80
2019-04-03T15:29:42.905Z,5.60
2019-04-03T15:32:11.998Z,5.30
2019-04-03T15:34:40.889Z,5.97
2019-04-03T15:37:09.935Z,5.40
2019-04-03T15:39:38.966Z,6.00
2019-04-03T15:42:08.504Z,6.90
2019-04-03T15:44:37.482Z,6.33
2019-04-03T15:47:08.920Z,6.50
2019-04-03T15:49:40.894Z,6.58
2019-04-03T15:52:11.022Z,6.60
2019-04-03T15:54:40.923Z,6.90
2019-04-03T15:57:18.514Z,4.97
2019-04-03T15:59:52.500Z,4.20
2019-04-03T16:02:21.489Z,4.97
2019-04-03T16:04:50.432Z,4.50
2019-04-03T16:07:27.441Z,4.73
2019-04-03T16:09:58.440Z,4.90
2019-04-03T16:12:27.349Z,4.83
2019-04-03T16:14:56.308Z,4.43
2019-04-03T16:17:25.165Z,4.70
2019-04-03T16:19:54.175Z,4.00
2019-04-03T16:22:24.057Z,3.77
2019-04-03T16:24:53.853Z,3.50
2019-04-03T16:27:23.268Z,3.13
2019-04-03T16:29:52.152Z,3.40
2019-04-03T16:32:21.033Z,2.77
2019-04-03T16:34:50.158Z,3.10
2019-04-03T16:37:21.431Z,3.27
2019-04-03T16:39:49.391Z,2.60
2019-04-03T16:42:18.195Z,2.10
2019-04-03T16:44:47.158Z,2.13
2019-04-03T16:47:16.092Z,1.90
2019-04-03T16:49:44.832Z,1.90
2019-04-03T16:52:13.812Z,1.90
2019-04-03T16:54:44.415Z,2.40
2019-04-03T16:57:13.766Z,2.00
2019-04-03T16:59:42.652Z,2.20
2019-04-03T17:02:11.484Z,2.43
2019-04-03T17:04:40.347Z,2.30
2019-04-03T17:07:09.136Z,2.70
2019-04-03T17:09:39.378Z,2.67
2019-04-03T17:12:09.606Z,2.90
2019-04-03T17:14:39.913Z,3.20
2019-04-03T17:17:13.314Z,2.70
2019-04-03T17:19:39.557Z,2.93
2019-04-03T17:22:08.541Z,3.17
2019-04-03T17:24:44.222Z,3.20
2019-04-03T17:27:08.324Z,3.77
2019-04-03T17:29:37.561Z,3.00
2019-04-03T17:32:08.257Z,3.67
2019-04-03T17:34:43.892Z,3.30
2019-04-03T17:37:19.029Z,3.40
2019-04-03T17:39:45.238Z,3.43
2019-04-03T17:42:19.286Z,3.60
2019-04-03T17:44:51.110Z,3.27
2019-04-03T17:47:23.607Z,3.27
2019-04-03T17:49:59.285Z,3.77
2019-04-03T17:52:30.744Z,3.87
2019-04-03T17:54:59.880Z,3.87
2019-04-03T17:57:37.612Z,4.43
2019-04-03T18:00:09.447Z,5.03
2019-04-03T18:02:39.083Z,4.87
2019-04-03T18:05:09.140Z,4.80
2019-04-03T18:07:43.554Z,5.50
2019-04-03T18:10:13.169Z,5.87
2019-04-03T18:12:46.953Z,5.17
2019-04-03T18:15:16.562Z,5.67
2019-04-03T18:17:49.704Z,5.50
2019-04-03T18:20:21.292Z,5.40
2019-04-03T18:22:52.827Z,5.40
2019-04-03T18:25:24.687Z,5.63
2019-04-03T18:27:56.741Z,5.60
2019-04-03T18:30:27.142Z,5.20
2019-04-03T18:33:05.806Z,5.50
2019-04-03T18:35:43.579Z,5.93
2019-04-03T18:38:12.799Z,5.70
2019-04-03T18:40:45.880Z,5.53
2019-04-03T18:43:15.327Z,5.80
2019-04-03T18:45:45.725Z,5.97
2019-04-03T18:48:17.052Z,6.00
2019-04-03T18:50:49.112Z,5.97
2019-04-03T18:53:18.195Z,6.57
2019-04-03T18:55:49.631Z,7.80
2019-04-03T18:58:18.988Z,4.73
2019-04-03T19:00:49.490Z,4.30
2019-04-03T19:03:18.748Z,4.17
2019-04-03T19:05:47.872Z,3.23
2019-04-03T19:08:18.143Z,2.60
2019-04-03T19:10:47.928Z,2.10
2019-04-03T19:13:18.227Z,2.63
2019-04-03T19:16:01.986Z,2.90
2019-04-03T19:18:32.027Z,3.30
2019-04-03T19:21:01.318Z,4.20
2019-04-03T19:23:34.485Z,3.40
2019-04-03T19:26:03.515Z,3.27
2019-04-03T19:28:34.321Z,3.43
2019-04-03T19:31:03.133Z,3.20
2019-04-03T19:33:34.475Z,3.80
2019-04-03T19:36:03.549Z,3.97
2019-04-03T19:38:33.922Z,4.60
2019-04-03T19:41:04.738Z,5.10
2019-04-03T19:43:41.280Z,4.67
2019-04-03T19:46:10.369Z,5.27
2019-04-03T19:48:39.291Z,6.20
2019-04-03T19:51:08.438Z,4.60
2019-04-03T19:53:37.629Z,5.03
2019-04-03T19:56:06.590Z,4.00
2019-04-03T19:58:38.690Z,4.00
2019-04-03T20:01:08.354Z,5.30
2019-04-03T20:03:39.197Z,5.17
2019-04-03T20:06:09.561Z,4.93
2019-04-03T20:08:42.560Z,5.30
2019-04-03T20:11:15.757Z,5.20
2019-04-03T20:13:45.863Z,5.07
2019-04-03T20:16:14.809Z,5.20
2019-04-03T20:18:43.878Z,4.63
2019-04-03T20:21:15.280Z,4.30
2019-04-03T20:23:44.435Z,4.77
2019-04-03T20:26:16.288Z,5.83
2019-04-03T20:28:44.074Z,5.40
2019-04-03T20:31:14.505Z,5.30
2019-04-03T20:33:43.614Z,5.30
2019-04-03T20:36:16.617Z,5.20
2019-04-03T20:38:47.439Z,5.80
2019-04-03T20:41:16.599Z,6.23
2019-04-03T20:43:47.162Z,5.47
2019-04-03T20:46:16.507Z,6.60
2019-04-03T20:48:45.617Z,7.23
2019-04-03T20:51:14.970Z,7.33
2019-04-03T20:53:46.015Z,6.83
2019-04-03T20:56:17.212Z,7.63
2019-04-03T20:58:55.705Z,8.33
2019-04-03T21:01:21.097Z,8.80
2019-04-03T21:03:53.603Z,9.17
2019-04-03T21:06:22.701Z,8.43
2019-04-03T21:08:52.047Z,8.67
2019-04-03T21:11:21.227Z,9.07
2019-04-03T21:13:53.069Z,8.93
2019-04-03T21:16:33.115Z,9.33
2019-04-03T21:18:56.505Z,9.27
2019-04-03T21:21:29.180Z,10.07
2019-04-03T21:23:59.937Z,8.53
2019-04-03T21:26:32.211Z,9.63
2019-04-03T21:29:02.932Z,11.07
2019-04-03T21:31:31.923Z,9.43
2019-04-03T21:34:02.018Z,9.93
2019-04-03T21:36:31.512Z,10.73
2019-04-03T21:39:00.536Z,10.77
2019-04-03T21:41:29.674Z,10.17
2019-04-03T21:43:59.950Z,9.30
2019-04-03T21:46:30.907Z,10.80
2019-04-03T21:49:02.831Z,10.07
2019-04-03T21:51:31.789Z,10.97
2019-04-03T21:54:00.788Z,10.50
2019-04-03T21:56:38.516Z,11.70
2019-04-03T21:59:09.025Z,11.43
2019-04-03T22:01:39.249Z,11.07
2019-04-03T22:04:09.731Z,12.87
2019-04-03T22:06:38.869Z,12.87
2019-04-03T22:09:11.131Z,12.80
2019-04-03T22:11:40.229Z,12.30
2019-04-03T22:14:11.150Z,13.57
2019-04-03T22:16:43.519Z,13.70
2019-04-03T22:19:13.589Z,14.83
2019-04-03T22:21:42.628Z,15.00
2019-04-03T22:24:11.790Z,15.53
2019-04-03T22:26:41.389Z,13.83
2019-04-03T22:29:11.023Z,13.90
2019-04-03T22:31:41.414Z,15.33
2019-04-03T22:34:10.261Z,14.90
2019-04-03T22:36:41.222Z,15.20
2019-04-03T22:39:13.771Z,15.13
2019-04-03T22:41:43.441Z,14.83
2019-04-03T22:44:16.872Z,15.50
2019-04-03T22:46:44.791Z,15.20
2019-04-03T22:49:15.195Z,16.67
2019-04-03T22:51:44.224Z,17.70
2019-04-03T22:54:13.595Z,16.80
2019-04-03T22:56:42.543Z,17.07
2019-04-03T22:59:11.628Z,16.93
2019-04-03T23:01:42.123Z,17.07
2019-04-03T23:04:13.474Z,17.20
2019-04-03T23:06:42.405Z,17.70
2019-04-03T23:09:11.279Z,15.67
2019-04-03T23:11:40.193Z,17.27
2019-04-03T23:14:09.129Z,16.67
2019-04-03T23:16:42.401Z,16.00
2019-04-03T23:19:10.930Z,16.10
2019-04-03T23:21:40.040Z,16.97
2019-04-03T23:24:09.093Z,17.50
2019-04-03T23:26:40.964Z,18.90
2019-04-03T23:29:09.855Z,16.07
2019-04-03T23:31:38.887Z,16.93
2019-04-03T23:34:07.845Z,17.03
2019-04-03T23:36:36.671Z,18.30
2019-04-03T23:39:08.122Z,17.93
2019-04-03T23:41:37.115Z,20.13
2019-04-03T23:44:06.015Z,18.80
2019-04-03T23:46:35.000Z,19.00
2019-04-03T23:49:04.038Z,21.27
2019-04-03T23:51:33.159Z,19.13
2019-04-03T23:54:02.769Z,22.47
2019-04-03T23:56:32.407Z,21.20
2019-04-03T23:59:01.508Z,20.93
